Dilbeek, Belgium
Current Conditions -  °F | °C
As of 9:50 PM on Tuesday 25 Nov 2014 (Local Time) from EBBR Reporting Station
Clear Clear  
Wind Chill: 39°   Ceiling: Unl
Heat Index: 43°   Visibility: 6mi
Dew Point: 36°   Wind: 7mph
Humidity: 76%   Direction: 90°E
Pressure: 30.06"   Gusts: NA
Location:  50.85°N, 4.26°E
Report Text: EBBR 252050Z 09006KT 060V130 CAVOK 06/02 Q1018 NOSIG
Loading
Personal Weather Stations






























Interactive Weather Map New forecast layout! Learn more

10-Day Weather Forecast

Advertisements
Track Severe Weather on mobile